Time;durP1;ratioP1;P1;durP2;ratioP2;P2;SDS_P1;SDS_P2;PMS_P1;PMS_P2;Temp;Humidity;BMP_temperature;BMP_pressure;BME280_temperature;BME280_humidity;BME280_pressure;Samples;Min_cycle;Max_cycle;Signal;HPM_P1;HPM_P2
2022/05/25 00:01:47;;;;;;;4.85;2.10;;;13.10;99.90;;;;;;4971409;28;21801;-63
2022/05/25 00:04:14;;;;;;;5.30;1.52;;;13.20;99.90;;;;;;4997246;28;21544;-62
2022/05/25 00:06:41;;;;;;;2.50;2.00;;;12.80;99.90;;;;;;4991473;28;20407;-62
2022/05/25 00:09:07;;;;;;;1.80;1.70;;;13.10;99.90;;;;;;5008775;28;20210;-62
2022/05/25 00:11:34;;;;;;;2.10;1.90;;;12.80;99.90;;;;;;5007865;28;20226;-62
2022/05/25 00:14:03;;;;;;;2.28;1.80;;;13.10;99.90;;;;;;4999135;28;20699;-62
2022/05/25 00:16:30;;;;;;;1.60;1.50;;;13.00;99.90;;;;;;4966673;28;20198;-63
2022/05/25 00:21:42;;;;;;;2.65;2.10;;;13.00;99.90;;;;;;4995629;28;20651;-62
2022/05/25 00:24:08;;;;;;;3.65;2.28;;;12.90;99.90;;;;;;5010247;28;20208;-62
2022/05/25 00:26:35;;;;;;;3.28;1.90;;;12.90;99.90;;;;;;5007319;28;20196;-62
2022/05/25 00:29:04;;;;;;;2.45;2.25;;;13.10;99.90;;;;;;5009313;28;20252;-62
2022/05/25 00:31:32;;;;;;;2.58;2.05;;;12.90;99.90;;;;;;4978379;28;20241;-62
2022/05/25 00:33:59;;;;;;;2.25;2.05;;;12.80;99.90;;;;;;4992154;28;20600;-62
2022/05/25 00:36:27;;;;;;;2.63;2.10;;;12.80;99.90;;;;;;5000774;28;20198;-62
2022/05/25 00:38:54;;;;;;;2.30;2.10;;;12.80;99.90;;;;;;5010090;28;20667;-62
2022/05/25 00:41:24;;;;;;;2.75;2.45;;;12.80;99.90;;;;;;5011522;28;20640;-62
2022/05/25 00:43:51;;;;;;;2.63;2.20;;;12.80;99.90;;;;;;5014262;28;20202;-62
2022/05/25 00:46:21;;;;;;;3.95;2.28;;;12.90;99.90;;;;;;4998754;28;20217;-62
2022/05/25 00:48:52;;;;;;;4.38;2.38;;;12.80;99.90;;;;;;4995158;28;20698;-62
2022/05/25 00:51:24;;;;;;;3.22;2.35;;;12.70;99.90;;;;;;5010117;28;20704;-63
2022/05/25 00:53:57;;;;;;;2.17;2.08;;;12.70;99.90;;;;;;4988490;28;20299;-63
2022/05/25 00:56:26;;;;;;;4.03;2.58;;;12.60;99.90;;;;;;5010753;28;20206;-62
2022/05/25 00:58:57;;;;;;;3.08;2.25;;;12.60;99.90;;;;;;5015433;28;20205;-62
2022/05/25 01:01:26;;;;;;;2.92;2.53;;;12.60;99.90;;;;;;4996802;28;20206;-62
2022/05/25 01:03:53;;;;;;;3.30;2.20;;;12.50;99.90;;;;;;4995825;28;20828;-62
2022/05/25 01:06:32;;;;;;;2.70;2.50;;;12.50;99.90;;;;;;5010593;28;20214;-62
2022/05/25 01:09:08;;;;;;;8.07;2.75;;;12.50;99.90;;;;;;4999002;28;20252;-63
2022/05/25 01:11:48;;;;;;;3.60;2.50;;;12.50;99.90;;;;;;5008173;28;20318;-62
2022/05/25 01:14:29;;;;;;;2.50;2.30;;;12.40;99.90;;;;;;5012389;28;20206;-63
2022/05/25 01:17:10;;;;;;;3.50;2.85;;;12.20;99.90;;;;;;4996624;28;20597;-62
2022/05/25 01:19:57;;;;;;;2.95;2.47;;;12.40;99.90;;;;;;4992693;28;20666;-62
2022/05/25 01:22:48;;;;;;;7.68;2.80;;;12.40;99.90;;;;;;5012466;28;20213;-62
2022/05/25 01:25:31;;;;;;;5.13;2.88;;;12.40;99.90;;;;;;5001033;28;20218;-63
2022/05/25 01:28:04;;;;;;;2.92;2.58;;;12.40;99.90;;;;;;5011444;28;20201;-62
2022/05/25 01:30:36;;;;;;;3.08;2.78;;;12.30;99.90;;;;;;5000492;28;20207;-63
2022/05/25 01:33:15;;;;;;;3.20;2.58;;;12.30;99.90;;;;;;4997090;28;20593;-62
2022/05/25 01:35:55;;;;;;;4.10;3.17;;;12.30;99.90;;;;;;4998951;28;20202;-62
2022/05/25 01:38:27;;;;;;;3.45;3.15;;;12.30;99.90;;;;;;5005042;28;20280;-63
2022/05/25 01:41:01;;;;;;;3.58;3.28;;;12.30;99.90;;;;;;5009904;28;20228;-62
2022/05/25 01:43:31;;;;;;;4.07;3.67;;;12.30;99.90;;;;;;5010827;28;20198;-62
2022/05/25 01:46:05;;;;;;;4.68;3.33;;;12.30;99.90;;;;;;4996365;28;20306;-62
2022/05/25 01:48:35;;;;;;;3.67;3.30;;;12.30;99.90;;;;;;4995592;28;20206;-62
2022/05/25 01:51:08;;;;;;;3.70;3.40;;;12.20;99.90;;;;;;4997275;28;20543;-62
2022/05/25 01:53:38;;;;;;;3.90;3.53;;;12.20;99.90;;;;;;5013062;28;20198;-62
2022/05/25 01:56:09;;;;;;;5.28;3.60;;;11.70;99.90;;;;;;5001727;28;20201;-62
2022/05/25 01:58:40;;;;;;;3.58;3.28;;;12.20;99.90;;;;;;5005309;28;20202;-62
2022/05/25 02:01:10;;;;;;;4.00;3.60;;;12.20;99.90;;;;;;4983058;28;20213;-62
2022/05/25 02:06:59;;;;;;;4.57;3.75;;;12.10;99.90;;;;;;4985729;28;22046;-62
2022/05/25 02:09:42;;;;;;;4.60;3.70;;;12.10;99.90;;;;;;4955748;28;21236;-62
2022/05/25 02:12:27;;;;;;;5.78;4.28;;;12.00;99.90;;;;;;4999974;28;20587;-63
2022/05/25 02:15:00;;;;;;;5.20;3.75;;;12.00;99.90;;;;;;5012703;28;20205;-63
2022/05/25 02:17:38;;;;;;;5.05;4.15;;;12.00;99.90;;;;;;5003460;28;20853;-62
2022/05/25 02:20:11;;;;;;;4.75;3.75;;;12.00;99.90;;;;;;4978640;28;20671;-62
2022/05/25 02:22:43;;;;;;;4.93;4.43;;;11.90;99.90;;;;;;5010384;28;20194;-62
2022/05/25 02:25:15;;;;;;;4.57;4.18;;;12.00;99.90;;;;;;5002453;28;20687;-63
2022/05/25 02:27:47;;;;;;;5.03;4.15;;;11.90;99.90;;;;;;5009520;28;20198;-62
2022/05/25 02:30:18;;;;;;;5.25;4.22;;;12.00;99.90;;;;;;5002766;28;20734;-62
2022/05/25 02:32:50;;;;;;;4.85;4.32;;;11.90;99.90;;;;;;5009417;28;20226;-62
2022/05/25 02:35:19;;;;;;;6.32;5.10;;;11.80;99.90;;;;;;4976394;28;20836;-62
2022/05/25 02:37:46;;;;;;;5.40;4.85;;;11.90;99.90;;;;;;5012144;28;20198;-62
2022/05/25 02:40:14;;;;;;;4.60;4.20;;;11.80;99.90;;;;;;4999981;28;20706;-62
2022/05/25 02:42:42;;;;;;;4.80;4.38;;;11.90;99.90;;;;;;5011450;28;20198;-62
2022/05/25 02:45:10;;;;;;;6.28;4.60;;;11.90;99.90;;;;;;4972063;28;20552;-62
2022/05/25 02:47:37;;;;;;;4.55;4.15;;;11.90;99.90;;;;;;4992500;28;20206;-62
2022/05/25 02:50:07;;;;;;;4.80;4.30;;;11.90;99.90;;;;;;4993602;28;20582;-62
2022/05/25 02:52:34;;;;;;;6.70;4.47;;;11.90;99.90;;;;;;4986777;28;20343;-62
2022/05/25 02:55:01;;;;;;;5.35;4.68;;;11.90;99.90;;;;;;5008827;28;20198;-63
2022/05/25 02:57:28;;;;;;;4.85;4.35;;;11.70;99.90;;;;;;4984691;28;20474;-62
2022/05/25 02:59:55;;;;;;;5.25;4.75;;;11.80;99.90;;;;;;4995482;28;20481;-62
2022/05/25 03:02:22;;;;;;;5.57;5.07;;;11.80;99.90;;;;;;4980752;28;20210;-62
2022/05/25 03:04:49;;;;;;;5.43;4.90;;;11.80;99.90;;;;;;4979982;28;20198;-62
2022/05/25 03:07:17;;;;;;;5.13;4.72;;;11.80;99.90;;;;;;4977258;28;20808;-62
2022/05/25 03:09:44;;;;;;;9.55;5.53;;;11.80;99.90;;;;;;5006522;28;21269;-62
2022/05/25 03:12:12;;;;;;;6.82;5.30;;;11.70;99.90;;;;;;4991730;28;20236;-62
2022/05/25 03:14:41;;;;;;;5.78;4.78;;;11.70;99.90;;;;;;4997547;28;20411;-62
2022/05/25 03:17:12;;;;;;;5.72;4.93;;;11.70;99.90;;;;;;5004363;28;20213;-62
2022/05/25 03:19:40;;;;;;;6.25;5.03;;;11.70;99.90;;;;;;4983406;28;23789;-62
2022/05/25 03:22:07;;;;;;;5.88;5.03;;;12.30;99.90;;;;;;4990667;28;20206;-62
2022/05/25 03:24:35;;;;;;;5.38;4.80;;;11.70;99.90;;;;;;5004194;28;20199;-62
2022/05/25 03:27:02;;;;;;;5.95;5.35;;;11.70;99.90;;;;;;4975714;28;20390;-62
2022/05/25 03:29:30;;;;;;;8.10;5.70;;;11.60;99.90;;;;;;5003462;28;20827;-62
2022/05/25 03:31:57;;;;;;;6.78;5.82;;;11.90;99.90;;;;;;4974826;28;20222;-62
2022/05/25 03:34:24;;;;;;;5.97;5.47;;;11.60;99.90;;;;;;4997470;28;20213;-62
2022/05/25 03:36:53;;;;;;;8.38;5.97;;;11.60;99.90;;;;;;4969394;28;21119;-62
2022/05/25 03:39:19;;;;;;;8.63;5.95;;;11.90;99.90;;;;;;4995120;28;20250;-62
2022/05/25 03:41:48;;;;;;;6.68;5.72;;;11.80;99.90;;;;;;4987876;28;20204;-62
2022/05/25 03:44:17;;;;;;;6.95;6.20;;;12.00;99.90;;;;;;4990798;28;20202;-62
2022/05/25 03:46:43;;;;;;;6.55;5.60;;;11.70;99.90;;;;;;4989347;28;20678;-62
2022/05/25 03:49:10;;;;;;;8.73;6.15;;;11.80;99.90;;;;;;4990185;28;20207;-62
2022/05/25 03:51:37;;;;;;;6.65;5.35;;;10.20;99.90;;;;;;4979772;28;20213;-63
2022/05/25 03:54:04;;;;;;;6.20;5.60;;;11.70;99.90;;;;;;4992293;28;20261;-62
2022/05/25 03:56:31;;;;;;;8.10;6.50;;;11.50;99.90;;;;;;5001508;28;20668;-61
2022/05/25 03:58:59;;;;;;;6.70;5.97;;;11.70;99.90;;;;;;4973649;28;20217;-62
2022/05/25 04:01:26;;;;;;;9.15;5.60;;;11.60;99.90;;;;;;4987591;28;20204;-62
2022/05/25 04:03:53;;;;;;;6.28;5.68;;;11.70;99.90;;;;;;4999106;28;20719;-62
2022/05/25 04:06:20;;;;;;;6.68;5.78;;;11.70;99.90;;;;;;4979158;28;20217;-62
2022/05/25 04:08:47;;;;;;;12.13;5.82;;;11.70;99.90;;;;;;4982574;28;20236;-62
2022/05/25 04:11:13;;;;;;;11.40;5.90;;;11.70;99.90;;;;;;4997380;28;20750;-62
2022/05/25 04:13:40;;;;;;;6.22;5.50;;;13.30;99.90;;;;;;4984428;28;20241;-62
2022/05/25 04:16:08;;;;;;;8.20;6.00;;;10.50;99.90;;;;;;4987941;28;20318;-62
2022/05/25 04:18:35;;;;;;;6.15;5.53;;;11.70;99.90;;;;;;4989412;28;20209;-62
2022/05/25 04:21:02;;;;;;;6.00;5.40;;;11.70;99.90;;;;;;4988175;28;22420;-62
2022/05/25 04:23:29;;;;;;;7.18;5.60;;;10.40;99.90;;;;;;4991783;28;20209;-62
2022/05/25 04:25:57;;;;;;;7.43;5.78;;;11.80;99.90;;;;;;4978527;28;20529;-62
2022/05/25 04:28:24;;;;;;;7.20;5.95;;;11.80;99.90;;;;;;4996400;28;20221;-62
2022/05/25 04:30:51;;;;;;;7.35;6.60;;;11.90;99.90;;;;;;4981529;28;20221;-62
2022/05/25 04:33:19;;;;;;;8.57;6.38;;;11.90;99.90;;;;;;4985062;28;20695;-62
2022/05/25 04:35:46;;;;;;;6.90;6.20;;;;;;;;;;4987166;28;20202;-62
2022/05/25 04:38:15;;;;;;;7.18;6.00;;;15.10;99.90;;;;;;4987065;28;20202;-62
2022/05/25 04:40:43;;;;;;;6.45;5.65;;;12.80;99.90;;;;;;4976098;28;20214;-62
2022/05/25 04:43:13;;;;;;;8.75;6.35;;;12.10;99.90;;;;;;5000018;28;20237;-62
2022/05/25 04:45:42;;;;;;;6.93;6.22;;;12.20;99.90;;;;;;4971219;28;20226;-62
2022/05/25 04:48:09;;;;;;;6.90;6.20;;;12.20;99.90;;;;;;4998996;28;20992;-62
2022/05/25 04:50:40;;;;;;;8.98;6.30;;;12.20;99.90;;;;;;4989045;28;20230;-62
2022/05/25 04:53:08;;;;;;;9.38;6.38;;;12.40;99.90;;;;;;4979554;28;21935;-62
2022/05/25 04:58:22;;;;;;;8.02;7.03;;;12.30;99.90;;;;;;5007795;28;20631;-63
2022/05/25 05:00:49;;;;;;;7.07;6.25;;;12.30;99.90;;;;;;5002783;28;20205;-62
2022/05/25 05:03:16;;;;;;;9.82;6.45;;;12.80;99.90;;;;;;5002160;28;20722;-62
2022/05/25 05:05:45;;;;;;;9.65;7.40;;;12.40;99.90;;;;;;5007851;28;20202;-62
2022/05/25 05:08:13;;;;;;;7.57;6.78;;;12.40;99.90;;;;;;4986620;28;20238;-62
2022/05/25 05:10:40;;;;;;;7.05;6.35;;;12.50;99.90;;;;;;4995764;28;20774;-62
2022/05/25 05:13:07;;;;;;;11.48;7.22;;;12.50;99.90;;;;;;4989099;28;20238;-62
2022/05/25 05:15:37;;;;;;;7.22;6.53;;;12.60;99.90;;;;;;5008265;28;20225;-62
2022/05/25 05:18:04;;;;;;;8.40;7.20;;;12.60;99.90;;;;;;5002876;28;20202;-62
2022/05/25 05:20:31;;;;;;;8.15;6.95;;;;;;;;;;5010109;28;20209;-62
2022/05/25 05:23:00;;;;;;;8.52;7.00;;;12.50;99.90;;;;;;4983920;28;20230;-62
2022/05/25 05:25:27;;;;;;;8.48;7.32;;;12.50;99.90;;;;;;4990876;28;20230;-62
2022/05/25 05:27:54;;;;;;;8.65;7.15;;;12.80;99.90;;;;;;4990811;28;20226;-62
2022/05/25 05:30:24;;;;;;;7.78;6.85;;;12.70;99.90;;;;;;5002556;28;20257;-62
2022/05/25 05:32:51;;;;;;;11.07;7.10;;;12.80;99.90;;;;;;5002422;28;20233;-61
2022/05/25 05:35:19;;;;;;;11.05;7.65;;;12.80;99.90;;;;;;5013894;28;20205;-62
2022/05/25 05:37:52;;;;;;;10.23;7.10;;;12.80;99.90;;;;;;5001149;28;20667;-62
2022/05/25 05:40:20;;;;;;;9.95;7.47;;;12.90;99.90;;;;;;4999385;28;20207;-62
2022/05/25 05:42:50;;;;;;;10.05;7.13;;;13.00;99.90;;;;;;4990842;28;20241;-62
2022/05/25 05:45:20;;;;;;;10.57;7.28;;;12.90;99.90;;;;;;5004077;28;20206;-62
2022/05/25 05:47:50;;;;;;;10.32;7.38;;;13.20;99.90;;;;;;5001982;28;20707;-63
2022/05/25 05:50:18;;;;;;;9.05;6.85;;;13.00;99.90;;;;;;5012933;28;20278;-62
2022/05/25 05:52:45;;;;;;;7.97;6.93;;;13.10;99.90;;;;;;5012249;28;20503;-65
2022/05/25 05:55:14;;;;;;;8.40;7.55;;;13.10;99.90;;;;;;4990527;28;20206;-63
2022/05/25 05:57:42;;;;;;;8.38;7.00;;;12.70;99.90;;;;;;4983641;28;21128;-63
2022/05/25 06:00:10;;;;;;;12.85;7.97;;;13.20;99.90;;;;;;5015035;28;20208;-63
2022/05/25 06:02:37;;;;;;;8.85;6.25;;;13.30;99.90;;;;;;5000970;28;20202;-63
2022/05/25 06:05:04;;;;;;;8.30;6.85;;;13.30;99.90;;;;;;5014322;28;20198;-63
2022/05/25 06:07:31;;;;;;;8.30;6.88;;;13.40;99.90;;;;;;5003109;28;20241;-63
2022/05/25 06:09:58;;;;;;;10.48;6.72;;;13.40;99.90;;;;;;5001256;28;20202;-63
2022/05/25 06:12:27;;;;;;;8.65;6.70;;;;;;;;;;4992271;28;20213;-63
2022/05/25 06:14:55;;;;;;;10.18;6.28;;;13.60;99.90;;;;;;5009510;28;20213;-63
2022/05/25 06:20:07;;;;;;;8.60;6.63;;;13.50;99.90;;;;;;5004687;28;20665;-62
2022/05/25 06:22:35;;;;;;;12.23;6.25;;;;;;;;;;5001170;28;20213;-62
2022/05/25 06:25:02;;;;;;;8.93;6.72;;;13.60;99.90;;;;;;5001537;28;20297;-63
2022/05/25 06:27:29;;;;;;;7.07;6.32;;;13.70;99.90;;;;;;5003501;28;20198;-63
2022/05/25 06:29:57;;;;;;;8.98;6.50;;;13.90;99.90;;;;;;5009927;28;20308;-62
2022/05/25 06:32:24;;;;;;;9.77;7.10;;;13.70;99.90;;;;;;5005627;28;20228;-62
2022/05/25 06:34:52;;;;;;;8.48;6.80;;;14.00;99.90;;;;;;5003580;28;20299;-63
2022/05/25 06:37:21;;;;;;;7.82;6.28;;;13.80;99.90;;;;;;5004904;28;20206;-62
2022/05/25 06:39:48;;;;;;;8.55;5.88;;;13.70;99.90;;;;;;5014516;28;20202;-62
2022/05/25 06:42:15;;;;;;;6.60;5.70;;;13.80;99.90;;;;;;4999840;28;20210;-62
2022/05/25 06:44:44;;;;;;;6.72;6.00;;;13.70;99.90;;;;;;4998046;28;21203;-61
2022/05/25 06:47:15;;;;;;;6.25;5.13;;;13.80;99.90;;;;;;5014196;28;20206;-62
2022/05/25 06:49:42;;;;;;;8.07;5.68;;;13.90;99.90;;;;;;4988813;28;20671;-62
2022/05/25 06:52:10;;;;;;;7.07;5.75;;;13.90;99.90;;;;;;5002880;28;20206;-62
2022/05/25 06:54:37;;;;;;;6.15;5.55;;;14.00;99.90;;;;;;5010387;28;20237;-62
2022/05/25 06:57:04;;;;;;;7.82;5.90;;;14.00;99.90;;;;;;4998026;28;20198;-63
2022/05/25 06:59:32;;;;;;;14.90;6.13;;;14.20;99.90;;;;;;4994539;28;20816;-63
2022/05/25 07:01:59;;;;;;;6.82;5.60;;;14.50;99.90;;;;;;5012836;28;20754;-63
2022/05/25 07:04:27;;;;;;;6.97;4.30;;;14.50;99.90;;;;;;4990905;28;20210;-62
2022/05/25 07:06:54;;;;;;;10.05;5.43;;;14.30;99.90;;;;;;5008753;28;20721;-62
2022/05/25 07:09:21;;;;;;;5.03;4.25;;;14.30;99.90;;;;;;5003003;28;20850;-62
2022/05/25 07:11:51;;;;;;;5.10;4.20;;;14.30;99.90;;;;;;4983075;28;20254;-62
2022/05/25 07:14:18;;;;;;;5.63;4.45;;;14.30;99.90;;;;;;4987034;28;20240;-62
2022/05/25 07:16:45;;;;;;;7.85;4.30;;;14.50;99.90;;;;;;4994612;28;20277;-62
2022/05/25 07:19:11;;;;;;;4.97;4.15;;;14.40;99.90;;;;;;4990341;28;20206;-62
2022/05/25 07:21:40;;;;;;;5.20;4.00;;;14.40;99.90;;;;;;4999678;28;20213;-62
2022/05/25 07:24:07;;;;;;;6.38;3.72;;;14.50;99.90;;;;;;5000353;28;20752;-62
2022/05/25 07:26:34;;;;;;;7.25;3.70;;;14.60;99.90;;;;;;4990813;28;20229;-62
2022/05/25 07:29:02;;;;;;;5.95;4.15;;;14.40;99.90;;;;;;5010007;28;20221;-62
2022/05/25 07:31:38;;;;;;;5.72;3.72;;;14.60;99.90;;;;;;4981014;28;20232;-62
2022/05/25 07:34:08;;;;;;;7.35;3.42;;;14.70;99.90;;;;;;5001540;28;20718;-62
2022/05/25 07:36:36;;;;;;;11.60;4.57;;;14.60;99.90;;;;;;4982372;28;20600;-62
2022/05/25 07:39:08;;;;;;;7.28;4.15;;;14.70;99.90;;;;;;5008223;28;20823;-62
2022/05/25 07:41:39;;;;;;;8.20;3.50;;;14.70;99.90;;;;;;5006418;28;20222;-62
2022/05/25 07:44:09;;;;;;;5.82;3.30;;;14.50;99.90;;;;;;4987592;28;20226;-62
2022/05/25 07:46:36;;;;;;;4.95;3.83;;;14.80;99.90;;;;;;4977100;28;20236;-63
2022/05/25 07:49:03;;;;;;;6.18;3.72;;;14.80;99.90;;;;;;4992757;28;20230;-62
2022/05/25 07:51:30;;;;;;;7.60;2.97;;;14.70;99.90;;;;;;4988186;28;20218;-63
2022/05/25 07:53:59;;;;;;;4.57;3.60;;;15.00;99.90;;;;;;5003703;28;20226;-63
2022/05/25 07:56:30;;;;;;;6.53;3.38;;;14.90;99.90;;;;;;5008223;28;20208;-63
2022/05/25 07:58:58;;;;;;;3.67;3.38;;;15.00;99.90;;;;;;4988378;28;20205;-62
2022/05/25 08:07:02;;;;;;;4.07;3.38;;;15.10;99.90;;;;;;5000342;28;20291;-63
2022/05/25 08:09:30;;;;;;;5.22;3.28;;;15.10;99.90;;;;;;5009751;28;20190;-62
2022/05/25 08:11:59;;;;;;;4.47;3.13;;;15.30;99.90;;;;;;4999803;28;20202;-63
2022/05/25 08:14:28;;;;;;;4.18;3.17;;;15.10;99.90;;;;;;5001106;28;20226;-62
2022/05/25 08:16:56;;;;;;;3.50;3.20;;;15.30;99.90;;;;;;4990736;28;20221;-62
2022/05/25 08:19:23;;;;;;;3.38;2.75;;;15.30;99.90;;;;;;4999549;28;20202;-65
2022/05/25 08:21:51;;;;;;;3.50;2.97;;;15.40;99.90;;;;;;4974705;28;20218;-62
2022/05/25 08:24:19;;;;;;;3.20;2.65;;;15.40;99.90;;;;;;4983823;28;20221;-62
2022/05/25 08:26:46;;;;;;;4.82;3.03;;;15.40;99.90;;;;;;4991795;28;20222;-61
2022/05/25 08:29:15;;;;;;;4.13;3.10;;;15.40;99.90;;;;;;4998263;28;20232;-62
2022/05/25 08:31:41;;;;;;;4.38;2.83;;;16.10;99.90;;;;;;4997166;28;20206;-62
2022/05/25 08:34:09;;;;;;;3.17;2.60;;;15.40;99.90;;;;;;4987842;28;20264;-62
2022/05/25 08:36:36;;;;;;;5.60;2.40;;;15.40;99.90;;;;;;4988830;28;20222;-62
2022/05/25 08:39:03;;;;;;;4.10;2.30;;;15.50;99.90;;;;;;4996539;28;20236;-62
2022/05/25 08:41:33;;;;;;;2.90;2.60;;;15.50;99.90;;;;;;4986822;28;21761;-62
2022/05/25 08:44:01;;;;;;;2.78;2.33;;;;;;;;;;5010704;28;20589;-62
2022/05/25 08:46:32;;;;;;;14.88;2.72;;;15.80;99.90;;;;;;4974100;28;20752;-61
2022/05/25 08:49:01;;;;;;;2.35;2.00;;;15.60;99.90;;;;;;4991327;28;20233;-62
2022/05/25 08:51:29;;;;;;;8.23;2.35;;;16.10;99.90;;;;;;4987068;28;20230;-62
2022/05/25 08:53:58;;;;;;;6.22;2.85;;;15.60;99.90;;;;;;4997596;28;20225;-61
2022/05/25 08:56:33;;;;;;;1.98;1.80;;;15.70;99.90;;;;;;4992520;28;20660;-62
2022/05/25 08:59:04;;;;;;;2.20;2.00;;;15.90;99.90;;;;;;5004781;28;20245;-61
2022/05/25 09:01:38;;;;;;;3.67;2.20;;;15.90;99.90;;;;;;5000614;28;20304;-62
2022/05/25 09:04:10;;;;;;;2.28;2.08;;;15.90;99.90;;;;;;4982885;28;20245;-61
2022/05/25 09:06:47;;;;;;;2.72;2.03;;;15.80;99.90;;;;;;5014307;28;20224;-62
2022/05/25 09:09:23;;;;;;;2.80;1.90;;;16.00;99.90;;;;;;4986494;28;20260;-62
2022/05/25 09:11:53;;;;;;;2.08;1.77;;;16.10;99.90;;;;;;5012851;28;20198;-62
2022/05/25 09:14:28;;;;;;;8.50;2.50;;;16.30;99.90;;;;;;4990169;28;20832;-61
2022/05/25 09:16:59;;;;;;;2.53;1.92;;;16.30;99.90;;;;;;5012505;28;20204;-62
2022/05/25 09:19:32;;;;;;;2.50;1.95;;;16.10;99.90;;;;;;4984772;28;20236;-62
2022/05/25 09:22:02;;;;;;;2.78;2.10;;;16.30;99.90;;;;;;5008247;28;20218;-61
2022/05/25 09:24:30;;;;;;;2.60;2.40;;;16.40;99.90;;;;;;4990673;28;20553;-61
2022/05/25 09:26:57;;;;;;;4.75;2.20;;;16.40;99.90;;;;;;4992940;28;20214;-61
2022/05/25 09:29:25;;;;;;;2.78;1.88;;;16.60;99.90;;;;;;5000026;28;20213;-62
2022/05/25 09:31:56;;;;;;;3.95;1.88;;;16.40;99.90;;;;;;4987377;28;21490;-61
2022/05/25 09:34:40;;;;;;;3.92;2.30;;;17.20;99.90;;;;;;5001516;28;20237;-62
2022/05/25 09:37:12;;;;;;;2.95;1.75;;;16.50;99.90;;;;;;5013606;28;20304;-61
2022/05/25 09:39:44;;;;;;;2.42;1.92;;;16.60;99.90;;;;;;4997248;28;20213;-62
2022/05/25 09:42:15;;;;;;;1.88;1.60;;;16.60;99.90;;;;;;5015498;28;20321;-62
2022/05/25 09:44:43;;;;;;;2.13;1.83;;;16.60;99.90;;;;;;5004015;28;20198;-61
2022/05/25 09:47:22;;;;;;;2.17;1.67;;;16.80;99.90;;;;;;4991047;28;20205;-62
2022/05/25 09:49:52;;;;;;;3.20;1.55;;;17.00;99.90;;;;;;4996783;28;21170;-62
2022/05/25 09:52:23;;;;;;;1.70;1.60;;;17.10;99.90;;;;;;4997824;28;20264;-62
2022/05/25 09:54:58;;;;;;;3.53;2.00;;;16.20;99.90;;;;;;4992208;28;21479;-62
2022/05/25 09:57:29;;;;;;;1.70;1.60;;;17.20;99.90;;;;;;5017255;28;20212;-61
2022/05/25 10:00:00;;;;;;;3.58;1.50;;;17.20;99.90;;;;;;5004367;28;20212;-62
2022/05/25 10:02:38;;;;;;;2.72;1.60;;;17.30;99.90;;;;;;5001953;28;20206;-62
2022/05/25 10:05:25;;;;;;;2.95;1.70;;;17.40;99.90;;;;;;5009676;28;20706;-61
2022/05/25 10:07:55;;;;;;;2.20;1.77;;;17.40;99.90;;;;;;4996673;28;20785;-62
2022/05/25 10:10:30;;;;;;;5.22;1.75;;;17.40;99.90;;;;;;4992492;28;20209;-62
2022/05/25 10:13:04;;;;;;;2.42;1.50;;;17.30;99.90;;;;;;5003191;28;20198;-62
2022/05/25 10:15:34;;;;;;;6.15;1.83;;;17.40;99.90;;;;;;5003094;28;20232;-62
2022/05/25 10:18:04;;;;;;;1.98;1.60;;;17.50;99.90;;;;;;4999467;28;20222;-62
2022/05/25 10:20:34;;;;;;;2.30;1.73;;;17.50;99.90;;;;;;5010404;28;20602;-62
2022/05/25 10:23:06;;;;;;;1.92;1.80;;;17.50;99.90;;;;;;4986383;28;20218;-61
2022/05/25 10:25:39;;;;;;;3.03;1.70;;;17.40;99.90;;;;;;4990155;28;20656;-61
2022/05/25 10:28:22;;;;;;;4.45;1.60;;;16.20;99.90;;;;;;5009670;28;20701;-62
2022/05/25 10:36:48;;;;;;;1.80;1.40;;;17.50;99.90;;;;;;5006232;28;20253;-61
2022/05/25 10:39:23;;;;;;;1.67;1.58;;;17.50;99.90;;;;;;4994954;28;20214;-61
2022/05/25 10:42:04;;;;;;;1.50;1.40;;;17.60;99.90;;;;;;4979145;28;20205;-61
2022/05/25 10:44:43;;;;;;;2.25;1.40;;;17.40;99.90;;;;;;5012315;28;20225;-62
2022/05/25 10:47:22;;;;;;;3.75;1.60;;;17.50;99.90;;;;;;5001811;28;20293;-62
2022/05/25 10:49:50;;;;;;;2.10;1.60;;;17.30;99.90;;;;;;5001372;28;20194;-61
2022/05/25 10:52:25;;;;;;;1.98;1.52;;;17.50;99.90;;;;;;5011704;28;20219;-62
2022/05/25 10:54:52;;;;;;;2.65;1.83;;;17.40;99.90;;;;;;4983674;28;20275;-61
2022/05/25 10:57:54;;;;;;;4.43;1.75;;;17.60;99.90;;;;;;4977839;28;20226;-62
2022/05/25 11:00:32;;;;;;;2.65;1.48;;;17.60;99.90;;;;;;5002326;28;20732;-62
2022/05/25 11:03:34;;;;;;;1.85;1.70;;;17.80;99.90;;;;;;5000612;28;20692;-61
2022/05/25 11:06:18;;;;;;;1.88;1.70;;;17.80;99.90;;;;;;4996675;28;20211;-62
2022/05/25 11:08:58;;;;;;;2.17;1.92;;;17.80;99.90;;;;;;5004215;28;20251;-62
2022/05/25 11:11:33;;;;;;;2.70;1.50;;;18.00;99.90;;;;;;4977242;28;20236;-62
2022/05/25 11:14:14;;;;;;;2.10;1.90;;;19.30;99.90;;;;;;4993048;28;20197;-62
2022/05/25 11:16:50;;;;;;;2.15;1.65;;;17.40;99.90;;;;;;5003667;28;20213;-62
2022/05/25 11:19:40;;;;;;;2.65;1.40;;;17.50;99.90;;;;;;5007485;28;20202;-62
2022/05/25 11:22:26;;;;;;;5.75;1.55;;;17.40;99.90;;;;;;4998919;28;20874;-61
2022/05/25 11:25:12;;;;;;;1.42;1.33;;;17.10;99.90;;;;;;4998520;28;20210;-62
2022/05/25 11:27:52;;;;;;;1.50;1.35;;;17.40;99.90;;;;;;5004141;28;20210;-62
2022/05/25 11:30:24;;;;;;;4.35;1.50;;;17.30;99.90;;;;;;5005979;28;20228;-62
2022/05/25 11:33:07;;;;;;;7.30;1.60;;;17.60;99.90;;;;;;4997777;28;20434;-62
2022/05/25 11:35:43;;;;;;;2.83;1.58;;;17.80;99.90;;;;;;5011299;28;20241;-62
2022/05/25 11:38:24;;;;;;;1.75;1.25;;;18.00;99.90;;;;;;5000874;28;20198;-62
2022/05/25 11:41:01;;;;;;;2.22;1.70;;;17.90;99.90;;;;;;4987972;28;20218;-62
2022/05/25 11:43:51;;;;;;;9.23;1.73;;;18.00;99.90;;;;;;4998018;28;20203;-62
2022/05/25 11:46:26;;;;;;;2.13;1.52;;;18.00;99.90;;;;;;4994550;28;20389;-62
2022/05/25 11:49:28;;;;;;;1.25;1.08;;;18.10;99.90;;;;;;5006571;28;20198;-62
2022/05/25 11:52:08;;;;;;;2.47;1.00;;;18.10;99.90;;;;;;4977346;28;20512;-62
2022/05/25 11:55:12;;;;;;;1.60;1.10;;;18.00;99.90;;;;;;5006370;28;20226;-62
2022/05/25 11:57:44;;;;;;;1.20;0.77;;;17.90;99.90;;;;;;4938251;28;20302;-62
2022/05/25 12:00:31;;;;;;;1.48;1.00;;;17.80;99.90;;;;;;4952098;28;20643;-62
2022/05/25 12:03:32;;;;;;;1.27;0.90;;;17.80;99.90;;;;;;4934609;28;20310;-62
2022/05/25 12:06:08;;;;;;;2.75;1.58;;;17.70;99.90;;;;;;4960781;28;20739;-62
2022/05/25 12:09:07;;;;;;;2.03;1.08;;;17.70;99.90;;;;;;4950848;28;20227;-62
2022/05/25 12:11:42;;;;;;;1.65;0.98;;;17.50;99.90;;;;;;4931594;28;20606;-61
2022/05/25 12:14:34;;;;;;;1.33;1.20;;;17.90;99.90;;;;;;4946472;28;20213;-62
2022/05/25 12:17:10;;;;;;;6.35;0.93;;;18.00;99.90;;;;;;4989833;28;20245;-62
2022/05/25 12:19:38;;;;;;;2.97;1.20;;;18.00;99.90;;;;;;4989243;28;20234;-61
2022/05/25 12:22:11;;;;;;;3.28;1.10;;;18.00;99.90;;;;;;5004498;28;20283;-61
2022/05/25 12:24:40;;;;;;;4.13;1.42;;;18.10;99.90;;;;;;4999015;28;20202;-62
2022/05/25 12:27:16;;;;;;;2.22;1.00;;;18.00;99.90;;;;;;4978490;28;20267;-62
2022/05/25 12:29:47;;;;;;;4.90;1.27;;;18.00;99.90;;;;;;4983037;28;20198;-62
2022/05/25 12:32:17;;;;;;;8.88;1.10;;;18.10;99.90;;;;;;4996556;28;20230;-62
2022/05/25 12:34:47;;;;;;;3.92;1.00;;;18.30;99.90;;;;;;5003145;28;20202;-62
2022/05/25 12:37:20;;;;;;;2.40;1.20;;;18.50;99.90;;;;;;5008325;28;20287;-62
2022/05/25 12:40:01;;;;;;;2.10;1.27;;;18.50;99.90;;;;;;4998390;28;20819;-62
2022/05/25 12:42:36;;;;;;;2.03;1.30;;;18.40;99.90;;;;;;4980427;28;20210;-60
2022/05/25 12:50:51;;;;;;;1.95;1.27;;;18.70;99.90;;;;;;5007877;28;20236;-62
2022/05/25 12:53:29;;;;;;;1.00;1.00;;;18.60;99.90;;;;;;4998016;28;20297;-61
2022/05/25 12:55:59;;;;;;;2.85;1.35;;;18.80;99.90;;;;;;5009603;28;20248;-61
2022/05/25 12:58:44;;;;;;;2.85;1.48;;;19.70;99.90;;;;;;4967787;28;20622;-61
2022/05/25 13:01:32;;;;;;;1.70;1.52;;;17.80;99.90;;;;;;4988733;28;20225;-61
2022/05/25 13:04:40;;;;;;;2.20;1.60;;;18.70;99.90;;;;;;4994581;28;20218;-62
2022/05/25 13:07:40;;;;;;;1.73;1.60;;;18.60;99.90;;;;;;4995335;28;20246;-61
2022/05/25 13:10:11;;;;;;;2.53;1.38;;;18.40;99.90;;;;;;4989155;28;20321;-61
2022/05/25 13:12:59;;;;;;;2.97;1.60;;;18.30;99.90;;;;;;4993624;28;20206;-61
2022/05/25 13:15:46;;;;;;;1.92;1.70;;;18.10;99.90;;;;;;4959914;28;20631;-61
2022/05/25 13:18:53;;;;;;;3.15;1.70;;;18.00;99.90;;;;;;4994144;28;20313;-61
2022/05/25 13:21:42;;;;;;;2.45;1.75;;;18.00;99.90;;;;;;5005161;28;20213;-61
2022/05/25 13:24:54;;;;;;;3.28;1.60;;;20.50;99.90;;;;;;4987502;28;20287;-61
2022/05/25 13:27:53;;;;;;;2.75;1.40;;;18.20;99.90;;;;;;4943424;28;20218;-61
2022/05/25 13:30:32;;;;;;;4.95;1.52;;;18.20;99.90;;;;;;4946250;28;20229;-61
2022/05/25 13:33:03;;;;;;;1.58;1.40;;;18.30;99.90;;;;;;4969580;28;20648;-61
2022/05/25 13:35:40;;;;;;;3.13;1.58;;;18.20;99.90;;;;;;5002480;28;20234;-62
2022/05/25 13:38:38;;;;;;;1.35;1.20;;;18.10;99.90;;;;;;4996311;28;20785;-62
2022/05/25 13:41:13;;;;;;;1.55;1.45;;;18.00;99.90;;;;;;4982311;28;20971;-61
2022/05/25 13:43:55;;;;;;;5.03;1.35;;;17.90;99.90;;;;;;4994239;28;20233;-62